Terminal Aerodrome Forecast
Issued by NWS

Home | Current Version | Previous Version | Text Only | Print | Product List | Glossary On
Versions: 1 2 3 4 5 6 7 8 9 10 11 12 13 14 15 16 17 18 19 20 21 22 23 24 25 26 27 28 29 30 31
000
FTUS41 KCAR 280232 AAA
TAFBHB
TAF AMD
KBHB 280232Z 2803/2824 VRB03KT 1SM -RA BR OVC003
     FM281200 VRB03KT 2SM -RA BR OVC003
     FM281700 20006KT 3SM BR VCSH OVC003
     FM281900 20006KT 6SM BR OVC004=

USA.gov is the U.S. government's official web portal to all federal, state and local government web resources and services.